Forside
METAR-TAF:

METAR-TAF

Lufthavne :

Flughafen Bremen

Bremen, Tyskland

Breddekreds: 53-03N, længdekreds: 008-48E, højde: 3 m

Aktuelle vejr

Denne rapport blev lavet for 19 minutter siden, kl. 01:50 UTC
Vind 4 kt fra vestnordvest
Temperatur 13°C
Fugtighed 88%
Tryk 1013 hPa
Sigt 10 km eller mere
Nogle få skyer i en højde af 1600 ft
Brudte skyer i en højde af 3600 ft

METAR: EDDW 220150Z 29004KT 9999 FEW016 BKN036 13/11 Q1013

Tid: 04:09 (02:09 UTC)

Vejrudsigter

Denne rapport blev lavet for 3 timer og 9 minutter siden, kl. 23:00 UTC
Foreløbig gælder fra 22 på 00 UTC til 22 på 24 UTC
Vind 8 kt fra nordnordvest
Sigt 10 km eller mere
Brudte skyer i en højde af 3000 ft
Sandsynlighed 30% :
Midlertidig
fra 22 på 00 UTC til 22 på 05 UTC
Brudte skyer i en højde af 1200 ft
ændring
fra 22 på 22 UTC til 22 på 24 UTC
Vind 3 kt fra varierende retninger

TAF: EDDW 212300Z 2200/2224 33008KT 9999 BKN030 PROB30 TEMPO 2200/2205 BKN012 BECMG 2222/2224 VRB03KT

Vejrobservationer og prognoser fra mere end 4000 lufthavne (METAR og TAF).

De gule og røde prikker repræsenterer de meteorologiske stationer.

Flyt musen over at se navnet på stationen.

Så klik over at se vejr observationer og prognoser.

At skifte det kort: Klik på de grønne knapper med et sort kors for at zoome ind; på den grønne knap med en bindestreg for at zoome ud; eller på de grønne pile for tilstødende kort.


METAR-TAF: